Terminal Aerodrome Forecast
Issued by NWS Goodland, KS

Home | Current Version | Previous Version | Text Only | Print | Product List | Glossary On
Versions: 1 2 3 4 5 6 7 8 9 10 11 12 13 14 15 16 17
000
FTUS43 KGLD 290520
TAFGLD
TAF
KGLD 290520Z 2906/3006 VRB04KT 6SM BR SCT100
      TEMPO 2906/2908 2SM BR BKN002
     FM291200 35008KT P6SM SCT025 BKN050
     FM291500 01012G17KT P6SM VCSH SCT015 BKN025
      TEMPO 2915/2918 4SM -SN BR SCT007 BKN015
     FM291900 03015G25KT 1SM -SN BLSN OVC005=

USA.gov is the U.S. government's official web portal to all federal, state and local government web resources and services.